Time;durP1;ratioP1;P1;durP2;ratioP2;P2;SDS_P1;SDS_P2;PMS_P1;PMS_P2;Temp;Humidity;BMP_temperature;BMP_pressure;BME280_temperature;BME280_humidity;BME280_pressure;Samples;Min_cycle;Max_cycle;Signal;HPM_P1;HPM_P2
2021/09/06 00:01:22;;;;;;;14.85;9.23;;;;;;;13.95;71.61;97041.03;5056255;28;20074;-56
2021/09/06 00:03:47;;;;;;;17.33;8.60;;;;;;;13.96;71.80;97044.50;5056275;28;20053;-58
2021/09/06 00:06:13;;;;;;;12.80;8.60;;;;;;;13.87;72.28;97046.63;5055096;28;20483;-56
2021/09/06 00:08:38;;;;;;;14.25;8.80;;;;;;;13.77;72.84;97040.91;5056223;28;20032;-55
2021/09/06 00:11:09;;;;;;;16.75;9.10;;;;;;;13.74;72.96;97048.06;5055986;28;20078;-59
2021/09/06 00:13:37;;;;;;;16.92;8.75;;;;;;;13.78;73.03;97047.00;5056032;28;20039;-58
2021/09/06 00:16:03;;;;;;;13.98;8.60;;;;;;;13.87;72.72;97049.25;5055949;28;20027;-58
2021/09/06 00:18:28;;;;;;;14.27;9.20;;;;;;;13.91;72.49;97044.72;5056064;28;20025;-55
2021/09/06 00:20:56;;;;;;;13.85;8.85;;;;;;;13.95;72.83;97048.06;5055945;28;20542;-57
2021/09/06 00:23:23;;;;;;;13.18;8.75;;;;;;;14.05;72.46;97040.63;5055935;28;20021;-57
2021/09/06 00:25:49;;;;;;;15.73;8.82;;;;;;;14.14;72.48;97048.97;5055798;28;20021;-57
2021/09/06 00:28:15;;;;;;;18.88;9.38;;;;;;;14.19;71.97;97053.16;5055374;28;20055;-58
2021/09/06 00:30:41;;;;;;;14.55;8.35;;;;;;;14.26;72.21;97051.97;5055266;28;20136;-56
2021/09/06 00:33:06;;;;;;;15.70;8.18;;;;;;;14.19;72.35;97054.03;5055757;28;20471;-56
2021/09/06 00:35:32;;;;;;;14.02;9.13;;;;;;;14.19;71.83;97053.16;5055584;28;20040;-56
2021/09/06 00:37:59;;;;;;;14.50;9.25;;;;;;;14.28;72.41;97050.13;5055619;28;20107;-57
2021/09/06 00:40:25;;;;;;;14.48;8.30;;;;;;;14.35;72.22;97045.44;5055541;28;20032;-57
2021/09/06 00:42:50;;;;;;;14.77;8.68;;;;;;;14.28;71.29;97044.88;5055445;28;20489;-57
2021/09/06 00:45:16;;;;;;;14.93;8.77;;;;;;;14.30;71.45;97044.78;5055471;28;20036;-56
2021/09/06 00:47:42;;;;;;;13.43;8.63;;;;;;;14.29;72.04;97051.81;5055588;28;20028;-58
2021/09/06 00:50:12;;;;;;;14.45;9.43;;;;;;;14.28;72.19;97050.13;5055333;28;20387;-56
2021/09/06 00:52:41;;;;;;;13.93;8.68;;;;;;;14.25;72.07;97061.66;5055463;28;20029;-57
2021/09/06 00:55:09;;;;;;;14.45;9.10;;;;;;;14.25;71.98;97060.78;5055249;28;20056;-56
2021/09/06 00:57:35;;;;;;;14.18;8.60;;;;;;;14.24;72.50;97065.19;5053771;28;20025;-58
2021/09/06 01:00:03;;;;;;;14.68;8.50;;;;;;;14.26;72.20;97067.75;5055141;28;20089;-55
2021/09/06 01:02:29;;;;;;;15.80;8.70;;;;;;;14.23;72.21;97068.75;5055053;28;20021;-55
2021/09/06 01:04:54;;;;;;;13.90;9.32;;;;;;;14.29;72.62;97070.25;5055030;28;20494;-57
2021/09/06 01:07:20;;;;;;;15.52;8.85;;;;;;;14.35;72.88;97058.59;5055277;28;20028;-58
2021/09/06 01:09:46;;;;;;;17.23;9.20;;;;;;;14.41;72.83;97060.94;5054922;28;20060;-56
2021/09/06 01:12:11;;;;;;;12.52;8.98;;;;;;;14.43;72.46;97061.75;5054932;28;20482;-57
2021/09/06 01:14:37;;;;;;;14.45;8.98;;;;;;;14.47;72.36;97062.44;5054913;28;20029;-58
2021/09/06 01:17:04;;;;;;;13.25;9.20;;;;;;;14.49;72.44;97056.19;5054831;28;20095;-54
2021/09/06 01:19:30;;;;;;;12.23;8.75;;;;;;;14.47;72.37;97062.44;5054771;28;20055;-55
2021/09/06 01:21:55;;;;;;;14.75;9.75;;;;;;;14.50;72.60;97062.31;5054772;28;20163;-56
2021/09/06 01:24:21;;;;;;;15.93;9.23;;;;;;;14.48;72.27;97067.63;5054733;28;20515;-54
2021/09/06 01:26:47;;;;;;;16.42;9.02;;;;;;;14.55;71.99;97073.50;5054660;28;20417;-57
2021/09/06 01:29:13;;;;;;;16.52;8.75;;;;;;;14.55;71.60;97067.34;5054677;28;20593;-54
2021/09/06 01:31:38;;;;;;;14.30;9.63;;;;;;;14.60;71.44;97075.91;5054675;28;20025;-57
2021/09/06 01:34:05;;;;;;;16.38;8.35;;;;;;;14.66;71.72;97068.56;5054556;28;20017;-57
2021/09/06 01:36:31;;;;;;;13.55;8.95;;;;;;;14.71;72.09;97063.09;5054540;28;20025;-54
2021/09/06 01:38:56;;;;;;;16.55;9.23;;;;;;;14.76;72.30;97063.75;5054364;28;20043;-55
2021/09/06 01:41:22;;;;;;;16.48;9.25;;;;;;;14.78;71.94;97068.97;5054159;28;20025;-54
2021/09/06 01:43:47;;;;;;;15.40;8.52;;;;;;;14.78;71.67;97066.34;5054496;28;20028;-55
2021/09/06 01:46:13;;;;;;;16.90;8.20;;;;;;;14.82;71.83;97061.78;5054372;28;20025;-59
2021/09/06 01:48:39;;;;;;;14.85;9.00;;;;;;;14.85;71.14;97070.41;5054422;28;20033;-54
2021/09/06 01:51:04;;;;;;;12.32;8.60;;;;;;;14.89;71.17;97077.22;5054105;28;20032;-57
2021/09/06 01:53:30;;;;;;;12.50;8.80;;;;;;;14.95;71.24;97068.16;5054152;28;20025;-57
2021/09/06 01:55:55;;;;;;;17.02;8.70;;;;;;;14.99;71.00;97067.09;5054099;28;20115;-56
2021/09/06 01:58:21;;;;;;;15.68;8.98;;;;;;;15.00;71.04;97060.06;5053787;28;20048;-55
2021/09/06 02:00:47;;;;;;;14.23;8.85;;;;;;;15.06;70.94;97061.53;5054109;28;20025;-55
2021/09/06 02:03:13;;;;;;;15.27;8.68;;;;;;;15.07;70.96;97060.59;5054071;28;20374;-58
2021/09/06 02:05:38;;;;;;;15.10;9.52;;;;;;;15.07;70.73;97061.47;5053999;28;20044;-57
2021/09/06 02:08:04;;;;;;;13.13;9.65;;;;;;;15.09;70.91;97066.66;5053875;28;20082;-57
2021/09/06 02:10:30;;;;;;;12.88;8.75;;;;;;;15.06;70.91;97062.41;5053732;28;20386;-59
2021/09/06 02:12:55;;;;;;;12.60;8.50;;;;;;;15.06;71.06;97059.75;5053751;28;20025;-56
2021/09/06 02:15:22;;;;;;;14.25;8.90;;;;;;;15.02;70.83;97066.94;5053692;28;20437;-55
2021/09/06 02:17:47;;;;;;;17.58;8.27;;;;;;;15.02;71.06;97066.13;5053784;28;20060;-57
2021/09/06 02:20:13;;;;;;;12.35;8.35;;;;;;;15.05;71.31;97065.09;5053690;28;20041;-57
2021/09/06 02:22:39;;;;;;;13.60;8.32;;;;;;;15.01;71.05;97069.66;5053575;28;20017;-54
2021/09/06 02:25:05;;;;;;;11.55;8.55;;;;;;;14.97;71.00;97066.34;5053516;28;20025;-59
2021/09/06 02:27:31;;;;;;;13.48;8.45;;;;;;;14.98;70.83;97072.44;5053444;28;20542;-58
2021/09/06 02:29:57;;;;;;;14.73;8.32;;;;;;;14.98;71.04;97073.28;5053386;28;20163;-55
2021/09/06 02:32:23;;;;;;;12.15;8.50;;;;;;;14.97;70.89;97073.38;5053423;28;20371;-58
2021/09/06 02:34:48;;;;;;;14.30;8.23;;;;;;;14.97;70.72;97071.59;5053486;28;20053;-55
2021/09/06 02:37:14;;;;;;;11.18;8.20;;;;;;;14.98;70.92;97069.78;5053355;28;20016;-57
2021/09/06 02:39:40;;;;;;;11.80;8.73;;;;;;;14.95;71.25;97083.09;5053297;28;20457;-57
2021/09/06 02:42:06;;;;;;;13.68;9.05;;;;;;;14.94;71.43;97077.00;5053373;28;20104;-57
2021/09/06 02:44:31;;;;;;;13.82;9.07;;;;;;;14.94;71.37;97081.41;5053334;28;20021;-59
2021/09/06 02:46:57;;;;;;;12.45;8.30;;;;;;;14.93;71.01;97079.72;5053181;28;20029;-57
2021/09/06 02:49:23;;;;;;;12.35;7.93;;;;;;;14.94;71.30;97084.03;5053117;28;20024;-56
2021/09/06 02:51:49;;;;;;;12.57;8.68;;;;;;;14.90;70.77;97081.56;5052642;28;20086;-57
2021/09/06 02:54:16;;;;;;;17.55;8.93;;;;;;;14.86;70.65;97080.00;5053162;28;20029;-56
2021/09/06 02:56:42;;;;;;;13.07;8.40;;;;;;;14.89;70.32;97085.13;5053028;28;20028;-55
2021/09/06 02:59:08;;;;;;;13.13;8.65;;;;;;;14.91;70.43;97085.06;5052842;28;20061;-58
2021/09/06 03:01:33;;;;;;;12.98;8.40;;;;;;;14.95;70.90;97089.25;5053015;28;20095;-55
2021/09/06 03:03:59;;;;;;;12.98;8.18;;;;;;;14.88;69.96;97085.19;5053016;28;20024;-55
2021/09/06 03:06:25;;;;;;;17.60;8.65;;;;;;;14.90;70.53;97094.72;5053086;28;20028;-58
2021/09/06 03:08:50;;;;;;;17.95;9.23;;;;;;;14.89;70.73;97089.53;5053029;28;20049;-56
2021/09/06 03:11:22;;;;;;;13.75;7.97;;;;;;;14.84;71.06;97089.75;5052911;28;20458;-57
2021/09/06 03:13:48;;;;;;;15.63;8.55;;;;;;;14.80;70.71;97087.31;5053024;28;20032;-57
2021/09/06 03:16:13;;;;;;;11.07;7.95;;;;;;;14.79;70.00;97094.38;5052976;28;20445;-56
2021/09/06 03:18:39;;;;;;;12.63;7.95;;;;;;;14.81;70.23;97102.22;5052924;28;20024;-58
2021/09/06 03:21:04;;;;;;;20.70;8.90;;;;;;;14.85;70.84;97099.38;5052813;28;20470;-60
2021/09/06 03:23:30;;;;;;;12.30;8.18;;;;;;;14.86;70.89;97100.19;5052807;28;20075;-57
2021/09/06 03:25:56;;;;;;;12.48;8.85;;;;;;;14.83;70.49;97103.84;5052933;28;20021;-57
2021/09/06 03:28:21;;;;;;;23.77;8.48;;;;;;;14.80;69.97;97101.34;5052770;28;20021;-56
2021/09/06 03:30:47;;;;;;;12.60;9.10;;;;;;;14.84;69.92;97102.06;5052827;28;20021;-55
2021/09/06 03:33:13;;;;;;;12.48;8.20;;;;;;;14.85;70.29;97102.00;5052810;28;20041;-58
2021/09/06 03:35:40;;;;;;;14.63;7.93;;;;;;;14.84;70.13;97107.34;5052756;28;20025;-56
2021/09/06 03:38:05;;;;;;;14.27;8.45;;;;;;;14.78;69.64;97101.41;5052702;28;20356;-57
2021/09/06 03:40:31;;;;;;;15.20;9.02;;;;;;;14.74;69.34;97099.81;5052689;28;20028;-57
2021/09/06 03:42:56;;;;;;;22.92;8.60;;;;;;;14.71;69.55;97101.72;5052773;28;20021;-57
2021/09/06 03:45:22;;;;;;;13.73;8.45;;;;;;;14.73;70.60;97100.75;5052669;28;20435;-57
2021/09/06 03:47:47;;;;;;;15.88;8.65;;;;;;;14.80;70.88;97100.47;5052512;28;20029;-54
2021/09/06 03:50:13;;;;;;;12.73;8.38;;;;;;;14.85;71.42;97109.03;5052479;28;20029;-59
2021/09/06 03:52:38;;;;;;;18.23;8.10;;;;;;;14.83;71.15;97106.47;5052638;28;20040;-57
2021/09/06 03:55:04;;;;;;;17.55;8.20;;;;;;;14.76;70.78;97118.19;5052559;28;20060;-57
2021/09/06 03:57:30;;;;;;;15.07;8.30;;;;;;;14.77;70.73;97122.53;5052649;28;20055;-59
2021/09/06 03:59:56;;;;;;;12.88;8.57;;;;;;;14.65;69.56;97131.84;5052277;28;20502;-58
2021/09/06 04:02:21;;;;;;;17.23;9.00;;;;;;;14.58;69.26;97133.03;5052510;28;20111;-59
2021/09/06 04:04:47;;;;;;;17.45;8.57;;;;;;;14.55;69.69;97133.16;5055784;28;20112;-56
2021/09/06 04:07:13;;;;;;;14.65;8.95;;;;;;;14.61;69.51;97136.41;5056225;28;20021;-58
2021/09/06 04:09:38;;;;;;;13.25;8.52;;;;;;;14.62;69.57;97134.59;5056098;28;20433;-59
2021/09/06 04:12:04;;;;;;;11.57;8.20;;;;;;;14.64;70.21;97136.25;5056090;28;20052;-56
2021/09/06 04:14:32;;;;;;;13.65;9.32;;;;;;;14.72;70.01;97142.97;5056095;28;20475;-57
2021/09/06 04:16:58;;;;;;;18.02;8.38;;;;;;;14.76;69.67;97145.38;5056018;28;20025;-58
2021/09/06 04:19:24;;;;;;;14.70;9.23;;;;;;;14.76;69.25;97147.16;5055975;28;20017;-54
2021/09/06 04:21:49;;;;;;;16.00;8.00;;;;;;;14.77;69.19;97147.09;5055917;28;20029;-56
2021/09/06 04:24:15;;;;;;;13.45;8.00;;;;;;;14.88;69.63;97149.28;5054736;28;20498;-57
2021/09/06 04:26:40;;;;;;;15.63;8.05;;;;;;;14.99;69.33;97153.19;5055813;28;20100;-55
2021/09/06 04:29:06;;;;;;;14.15;8.60;;;;;;;15.10;69.76;97157.94;5055651;28;20147;-56
2021/09/06 04:31:31;;;;;;;15.65;8.80;;;;;;;15.21;69.79;97160.09;5055861;28;20078;-57
2021/09/06 04:33:57;;;;;;;11.15;7.93;;;;;;;15.33;70.36;97154.25;5055773;28;20021;-56
2021/09/06 04:36:22;;;;;;;11.57;7.93;;;;;;;15.44;70.20;97150.22;5055679;28;20017;-58
2021/09/06 04:38:48;;;;;;;15.77;8.77;;;;;;;15.55;70.11;97150.56;5055668;28;20040;-55
2021/09/06 04:41:13;;;;;;;13.18;8.88;;;;;;;15.64;70.11;97151.88;5054275;28;20040;-58
2021/09/06 04:43:39;;;;;;;14.90;8.38;;;;;;;15.68;69.49;97161.34;5055502;28;20017;-55
2021/09/06 04:46:04;;;;;;;17.80;8.20;;;;;;;15.74;68.31;97160.22;5055555;28;20083;-58
2021/09/06 04:48:30;;;;;;;17.77;8.60;;;;;;;15.79;67.59;97159.06;5055424;28;20381;-56
2021/09/06 04:50:55;;;;;;;14.38;7.72;;;;;;;15.89;67.24;97170.00;5055263;28;20039;-56
2021/09/06 04:53:21;;;;;;;15.30;8.13;;;;;;;15.97;68.50;97169.66;5055405;28;20021;-57
2021/09/06 04:55:46;;;;;;;14.50;8.48;;;;;;;16.03;67.38;97166.72;5054129;28;20029;-59
2021/09/06 04:58:12;;;;;;;14.85;8.15;;;;;;;16.13;65.51;97176.78;5055078;28;20106;-56
2021/09/06 05:00:37;;;;;;;13.68;7.78;;;;;;;16.19;66.75;97170.38;5055165;28;20112;-59
2021/09/06 05:03:03;;;;;;;10.93;7.13;;;;;;;16.24;66.03;97170.97;5055185;28;20356;-57
2021/09/06 05:05:29;;;;;;;12.77;7.18;;;;;;;16.25;63.70;97168.25;5055122;28;20459;-57
2021/09/06 05:07:54;;;;;;;14.68;7.60;;;;;;;16.24;64.23;97173.59;5055031;28;20025;-58
2021/09/06 05:10:20;;;;;;;13.93;8.07;;;;;;;16.28;63.83;97172.50;5054962;28;20028;-58
2021/09/06 05:12:46;;;;;;;13.18;6.95;;;;;;;16.31;63.98;97168.88;5054992;28;20021;-57
2021/09/06 05:15:11;;;;;;;13.20;7.60;;;;;;;16.33;63.40;97165.22;5054347;28;20394;-57
2021/09/06 05:17:37;;;;;;;12.13;7.75;;;;;;;16.41;61.32;97175.41;5054983;28;20466;-56
2021/09/06 05:20:03;;;;;;;15.63;7.22;;;;;;;16.41;60.79;97170.94;5054874;28;20029;-58
2021/09/06 05:22:29;;;;;;;13.82;6.75;;;;;;;16.39;60.59;97177.25;5054783;28;20108;-57
2021/09/06 05:24:55;;;;;;;10.90;7.43;;;;;;;16.45;60.80;97171.66;5054676;28;20155;-58
2021/09/06 05:27:21;;;;;;;16.70;7.40;;;;;;;16.51;61.73;97175.75;5054772;28;20037;-58
2021/09/06 05:29:47;;;;;;;12.10;7.18;;;;;;;16.62;60.48;97173.41;5054635;28;20437;-57
2021/09/06 05:32:13;;;;;;;9.52;6.45;;;;;;;16.63;59.79;97174.25;5054515;28;20104;-57
2021/09/06 05:34:38;;;;;;;14.52;7.10;;;;;;;16.67;59.98;97168.75;5054639;28;20026;-55
2021/09/06 05:37:04;;;;;;;13.88;7.25;;;;;;;16.71;60.15;97174.72;5054484;28;20395;-56
2021/09/06 05:39:29;;;;;;;12.88;7.40;;;;;;;16.82;60.09;97178.59;5054469;28;20052;-57
2021/09/06 05:41:55;;;;;;;11.02;6.68;;;;;;;16.92;59.12;97182.44;5054448;28;20037;-57
2021/09/06 05:44:20;;;;;;;11.35;7.00;;;;;;;16.98;59.37;97189.19;5054361;28;20067;-57
2021/09/06 05:46:46;;;;;;;10.98;7.72;;;;;;;17.10;57.99;97185.06;5054408;28;20032;-57
2021/09/06 05:49:12;;;;;;;9.93;5.88;;;;;;;17.16;57.86;97182.91;5054262;28;20506;-57
2021/09/06 05:51:37;;;;;;;11.88;7.18;;;;;;;17.30;58.46;97187.44;5054223;28;20033;-56
2021/09/06 05:54:03;;;;;;;8.95;6.50;;;;;;;17.32;57.01;97189.16;5054189;28;20021;-55
2021/09/06 05:56:28;;;;;;;9.80;6.82;;;;;;;17.42;56.43;97193.00;5054089;28;20047;-56
2021/09/06 05:58:54;;;;;;;12.48;7.07;;;;;;;17.52;55.42;97190.69;5053877;28;20079;-57
2021/09/06 06:01:20;;;;;;;11.73;6.63;;;;;;;17.58;54.94;97194.78;5053978;28;20049;-59
2021/09/06 06:03:45;;;;;;;14.90;6.18;;;;;;;17.64;55.39;97199.75;5053933;28;20021;-58
2021/09/06 06:06:11;;;;;;;10.50;6.65;;;;;;;17.79;55.42;97190.09;5053933;28;20086;-58
2021/09/06 06:08:36;;;;;;;8.73;5.90;;;;;;;17.96;55.09;97196.16;5053889;28;20368;-58
2021/09/06 06:11:02;;;;;;;10.98;6.30;;;;;;;17.96;54.75;97206.75;5053751;28;20095;-58
2021/09/06 06:13:28;;;;;;;14.23;6.22;;;;;;;17.97;54.78;97203.19;5053723;28;20439;-56
2021/09/06 06:15:53;;;;;;;10.32;5.95;;;;;;;18.06;55.15;97202.63;5053850;28;20029;-57
2021/09/06 06:18:19;;;;;;;13.25;5.95;;;;;;;18.10;53.94;97206.88;5053756;28;20071;-59
2021/09/06 06:20:45;;;;;;;13.07;6.45;;;;;;;18.09;54.16;97202.47;5053596;28;20029;-57
2021/09/06 06:23:11;;;;;;;10.45;6.30;;;;;;;18.12;55.59;97206.78;5053664;28;20029;-55
2021/09/06 06:25:37;;;;;;;10.93;5.78;;;;;;;18.12;53.63;97204.13;5053601;28;20374;-55
2021/09/06 06:28:03;;;;;;;9.15;6.07;;;;;;;18.16;54.69;97203.00;5052692;28;20071;-57
2021/09/06 06:30:29;;;;;;;11.63;6.22;;;;;;;18.30;53.72;97218.06;5053408;28;20053;-57
2021/09/06 06:32:54;;;;;;;8.77;5.72;;;;;;;18.40;53.24;97216.59;5053497;28;20017;-58
2021/09/06 06:35:20;;;;;;;9.90;6.10;;;;;;;18.60;52.35;97211.06;5053370;28;20074;-59
2021/09/06 06:37:46;;;;;;;11.60;6.40;;;;;;;18.90;51.62;97223.41;5053423;28;20049;-59
2021/09/06 06:40:13;;;;;;;14.52;5.65;;;;;;;19.59;48.81;97232.47;5053408;28;20032;-58
2021/09/06 06:42:39;;;;;;;11.15;5.57;;;;;;;20.02;48.94;97224.38;5053349;28;20079;-57
2021/09/06 06:45:05;;;;;;;9.00;5.63;;;;;;;20.20;47.67;97227.63;5053360;28;20021;-58
2021/09/06 06:47:30;;;;;;;13.90;6.13;;;;;;;20.18;47.93;97231.34;5053272;28;20032;-55
2021/09/06 06:49:56;;;;;;;13.35;6.57;;;;;;;20.35;49.17;97232.88;5053083;28;20033;-59
2021/09/06 06:52:22;;;;;;;9.27;5.20;;;;;;;20.23;46.77;97223.94;5053137;28;20021;-57
2021/09/06 06:54:48;;;;;;;9.02;5.32;;;;;;;20.16;45.83;97231.44;5053060;28;20021;-55
2021/09/06 06:57:13;;;;;;;13.05;5.30;;;;;;;20.26;46.97;97242.28;5053133;28;20383;-56
2021/09/06 06:59:39;;;;;;;10.13;5.55;;;;;;;20.32;45.30;97241.06;5052929;28;20049;-59
2021/09/06 07:02:04;;;;;;;8.68;5.38;;;;;;;20.44;44.68;97245.53;5053040;28;20029;-57
2021/09/06 07:04:30;;;;;;;11.60;5.75;;;;;;;21.11;43.75;97239.31;5053041;28;20043;-59
2021/09/06 07:06:56;;;;;;;11.23;5.78;;;;;;;21.60;42.71;97234.97;5052984;28;20023;-59
2021/09/06 07:09:21;;;;;;;8.68;5.38;;;;;;;22.07;42.90;97244.97;5052930;28;20028;-59
2021/09/06 07:11:47;;;;;;;8.48;5.80;;;;;;;22.31;39.14;97239.59;5053140;28;20378;-56
2021/09/06 07:14:13;;;;;;;8.65;5.03;;;;;;;22.61;42.00;97242.78;5052863;28;20021;-58
2021/09/06 07:16:39;;;;;;;9.77;5.82;;;;;;;22.58;41.62;97245.69;5052982;28;20056;-58
2021/09/06 07:19:04;;;;;;;11.00;5.60;;;;;;;22.51;43.65;97241.75;5052892;28;20037;-57
2021/09/06 07:21:30;;;;;;;8.00;5.50;;;;;;;22.32;41.48;97249.31;5052916;28;20021;-58
2021/09/06 07:23:56;;;;;;;10.05;5.28;;;;;;;21.73;42.07;97250.06;5052896;28;20436;-57
2021/09/06 07:26:22;;;;;;;10.77;5.47;;;;;;;21.38;44.19;97249.84;5052811;28;20025;-56
2021/09/06 07:28:48;;;;;;;8.60;5.57;;;;;;;21.23;45.01;97254.44;5052824;28;20035;-54
2021/09/06 07:31:14;;;;;;;10.63;5.70;;;;;;;20.96;45.47;97253.56;5052715;28;20402;-59
2021/09/06 07:33:39;;;;;;;8.85;5.25;;;;;;;20.99;45.49;97252.53;5052734;28;20032;-57
2021/09/06 07:36:05;;;;;;;9.30;5.90;;;;;;;21.17;44.92;97258.38;5051527;28;20035;-55
2021/09/06 07:38:31;;;;;;;10.55;6.00;;;;;;;21.33;43.02;97255.47;5054096;28;20028;-58
2021/09/06 07:40:56;;;;;;;9.63;5.35;;;;;;;21.71;44.26;97253.66;5056722;28;20021;-58
2021/09/06 07:43:23;;;;;;;9.32;5.75;;;;;;;22.06;41.48;97259.22;5056657;28;20025;-57
2021/09/06 07:45:49;;;;;;;9.38;5.90;;;;;;;22.54;42.80;97260.16;5056576;28;20494;-59
2021/09/06 07:48:15;;;;;;;8.95;5.30;;;;;;;22.82;40.58;97250.09;5056544;28;20112;-58
2021/09/06 07:50:42;;;;;;;9.18;4.82;;;;;;;23.02;39.66;97253.03;5056414;28;20039;-56
2021/09/06 07:53:08;;;;;;;14.52;6.28;;;;;;;23.10;39.66;97253.28;5056429;28;20120;-58
2021/09/06 07:55:34;;;;;;;8.50;5.60;;;;;;;23.14;40.13;97262.72;5056469;28;20526;-57
2021/09/06 07:58:00;;;;;;;10.00;5.53;;;;;;;22.71;39.39;97267.75;5056186;28;20048;-60
2021/09/06 08:00:25;;;;;;;8.30;5.40;;;;;;;22.36;40.52;97260.56;5056372;28;20430;-55
2021/09/06 08:02:51;;;;;;;9.88;5.35;;;;;;;22.50;42.43;97264.88;5056435;28;20471;-56
2021/09/06 08:05:22;;;;;;;8.70;5.10;;;;;;;22.81;40.93;97261.69;5056223;28;20021;-55
2021/09/06 08:07:48;;;;;;;8.15;4.85;;;;;;;22.94;39.14;97265.13;5056334;28;20074;-57
2021/09/06 08:10:14;;;;;;;5.70;4.63;;;;;;;23.01;38.84;97262.84;5056123;28;20032;-58
2021/09/06 08:12:40;;;;;;;10.48;4.95;;;;;;;22.77;39.86;97261.09;5056208;28;20029;-59
2021/09/06 08:15:08;;;;;;;8.90;4.65;;;;;;;23.07;39.43;97264.19;5056146;28;20036;-58
2021/09/06 08:17:34;;;;;;;6.40;4.85;;;;;;;23.08;39.16;97256.06;5055994;28;20025;-59
2021/09/06 08:20:05;;;;;;;8.32;5.05;;;;;;;23.51;36.65;97261.66;5055942;28;20024;-60
2021/09/06 08:22:33;;;;;;;6.80;4.97;;;;;;;23.40;37.93;97257.19;5055962;28;20099;-59
2021/09/06 08:25:03;;;;;;;8.10;4.78;;;;;;;23.29;37.17;97259.81;5055854;28;20158;-60
2021/09/06 08:27:29;;;;;;;8.27;4.95;;;;;;;23.57;39.38;97261.16;5055921;28;20033;-59
2021/09/06 08:29:54;;;;;;;10.63;5.22;;;;;;;23.76;35.62;97266.84;5055723;28;20375;-59
2021/09/06 08:32:20;;;;;;;10.45;4.78;;;;;;;23.67;38.33;97266.63;5055871;28;20110;-59
2021/09/06 08:34:48;;;;;;;8.90;5.13;;;;;;;23.94;35.66;97264.53;5055853;28;20028;-59
2021/09/06 08:37:14;;;;;;;7.50;4.75;;;;;;;24.02;35.88;97262.06;5055703;28;20489;-59
2021/09/06 08:39:40;;;;;;;8.07;4.85;;;;;;;24.20;36.81;97259.72;5055612;28;20099;-59
2021/09/06 08:42:06;;;;;;;7.13;4.45;;;;;;;24.17;34.70;97265.31;5055560;28;20025;-59
2021/09/06 08:44:32;;;;;;;8.05;4.85;;;;;;;23.65;35.60;97262.38;5055542;28;20021;-57
2021/09/06 08:46:59;;;;;;;7.18;4.90;;;;;;;23.60;35.03;97270.78;5055603;28;20104;-59
2021/09/06 08:49:24;;;;;;;6.03;4.40;;;;;;;23.19;36.81;97270.38;5054911;28;20075;-59
2021/09/06 08:51:51;;;;;;;7.53;4.20;;;;;;;22.71;36.41;97257.09;5054956;28;20029;-56
2021/09/06 08:54:17;;;;;;;7.07;4.10;;;;;;;22.81;36.51;97267.03;5055309;28;20430;-58
2021/09/06 08:56:43;;;;;;;8.52;4.97;;;;;;;23.17;37.80;97270.50;5055324;28;20389;-59
2021/09/06 08:59:08;;;;;;;10.32;4.35;;;;;;;23.14;35.45;97262.72;5055025;28;20045;-59
2021/09/06 09:01:48;;;;;;;7.35;4.53;;;;;;;23.07;35.67;97264.19;5055227;28;20035;-59
2021/09/06 09:04:21;;;;;;;5.60;4.00;;;;;;;23.22;37.93;97260.31;5055114;28;20056;-55
2021/09/06 09:06:48;;;;;;;7.10;4.03;;;;;;;23.32;34.19;97262.25;5054967;28;20037;-57
2021/09/06 09:09:32;;;;;;;7.68;3.80;;;;;;;23.17;35.06;97257.16;5054924;28;20017;-58
2021/09/06 09:12:06;;;;;;;7.80;4.57;;;;;;;23.19;34.04;97259.69;5055167;28;20391;-59
2021/09/06 09:14:34;;;;;;;6.43;4.43;;;;;;;23.04;33.40;97253.75;5054977;28;20493;-56
2021/09/06 09:17:00;;;;;;;7.90;5.00;;;;;;;23.03;33.81;97260.06;5054952;28;20021;-58
2021/09/06 09:19:26;;;;;;;8.30;4.55;;;;;;;22.80;33.24;97249.34;5055005;28;20183;-57
2021/09/06 09:21:57;;;;;;;5.70;4.10;;;;;;;22.90;35.91;97250.34;5054788;28;20109;-59
2021/09/06 09:24:23;;;;;;;;;;;;;;;23.15;34.61;97255.59;5055198;28;20530;-59
2021/09/06 09:27:00;;;;;;;6.68;4.00;;;;;;;23.01;33.46;97254.84;5054747;28;20011;-60
2021/09/06 09:29:27;;;;;;;7.40;4.25;;;;;;;22.97;32.44;97248.88;5054644;28;20047;-59
2021/09/06 09:31:55;;;;;;;8.68;5.25;;;;;;;22.88;33.64;97249.63;5054659;28;20074;-59
2021/09/06 09:34:21;;;;;;;7.72;4.32;;;;;;;22.95;35.29;97248.19;5054581;28;20028;-59
2021/09/06 09:36:47;;;;;;;8.27;4.38;;;;;;;23.11;32.53;97249.63;5054545;28;20108;-59
2021/09/06 09:39:18;;;;;;;8.52;4.15;;;;;;;23.05;32.71;97245.63;5054522;28;20020;-58
2021/09/06 09:41:50;;;;;;;10.38;4.30;;;;;;;22.93;33.13;97255.44;5054514;28;20025;-58
2021/09/06 09:44:26;;;;;;;6.40;4.20;;;;;;;22.86;33.02;97254.22;5054421;28;20064;-57
2021/09/06 09:46:57;;;;;;;5.63;3.95;;;;;;;22.70;34.07;97244.72;5054333;28;20029;-58
2021/09/06 09:49:24;;;;;;;5.00;4.07;;;;;;;22.69;33.72;97242.16;5054298;28;20100;-57
2021/09/06 09:51:50;;;;;;;9.60;4.38;;;;;;;22.56;34.39;97244.91;5053033;28;20433;-57
2021/09/06 09:54:17;;;;;;;6.32;4.53;;;;;;;22.33;33.61;97234.16;5054173;28;20017;-57
2021/09/06 09:56:44;;;;;;;5.97;4.00;;;;;;;22.38;35.18;97242.66;5054201;28;20028;-59
2021/09/06 09:59:14;;;;;;;6.38;5.07;;;;;;;22.21;35.12;97244.78;5053850;28;20048;-58
2021/09/06 10:02:07;;;;;;;6.75;4.18;;;;;;;22.12;36.04;97234.81;5054013;28;20128;-58
2021/09/06 10:04:35;;;;;;;6.13;4.28;;;;;;;22.27;35.26;97231.97;5051594;28;20117;-58
2021/09/06 10:07:03;;;;;;;13.77;4.72;;;;;;;22.24;35.51;97242.84;5053952;28;20475;-59
2021/09/06 10:09:41;;;;;;;8.60;5.15;;;;;;;22.18;34.47;97241.47;5053757;28;20021;-57
2021/09/06 10:12:07;;;;;;;7.20;4.70;;;;;;;22.25;35.78;97242.75;5053850;28;20116;-60
2021/09/06 10:14:33;;;;;;;6.88;4.63;;;;;;;22.45;35.73;97233.25;5054050;28;20100;-59
2021/09/06 10:17:04;;;;;;;6.95;4.60;;;;;;;22.76;34.98;97232.75;5053693;28;20378;-58
2021/09/06 10:19:40;;;;;;;7.38;4.45;;;;;;;22.67;35.49;97239.63;5053787;28;20029;-59
2021/09/06 10:22:06;;;;;;;7.30;4.45;;;;;;;22.66;34.20;97239.75;5053802;28;20056;-59
2021/09/06 10:24:31;;;;;;;7.90;4.43;;;;;;;22.90;34.42;97230.84;5053717;28;20427;-60
2021/09/06 10:27:05;;;;;;;6.85;4.72;;;;;;;22.92;33.48;97242.22;5053627;28;20032;-60
2021/09/06 10:29:31;;;;;;;5.75;4.13;;;;;;;22.84;34.77;97232.13;5053407;28;20551;-60
2021/09/06 10:32:02;;;;;;;6.22;4.28;;;;;;;22.67;33.27;97220.94;5053459;28;20025;-59
2021/09/06 10:34:29;;;;;;;6.88;4.20;;;;;;;22.73;34.33;97238.31;5053538;28;20025;-59
2021/09/06 10:37:06;;;;;;;7.35;5.03;;;;;;;22.68;34.64;97222.69;5053459;28;20033;-58
2021/09/06 10:39:33;;;;;;;5.50;4.45;;;;;;;22.82;34.42;97229.59;5053511;28;20044;-57
2021/09/06 10:42:07;;;;;;;8.90;4.57;;;;;;;22.57;34.12;97230.59;5053272;28;20025;-58
2021/09/06 10:44:38;;;;;;;6.65;4.70;;;;;;;22.48;35.00;97232.16;5052146;28;20374;-59
2021/09/06 10:47:12;;;;;;;8.57;4.25;;;;;;;22.38;35.02;97221.34;5053356;28;20104;-58
2021/09/06 10:49:46;;;;;;;6.18;4.10;;;;;;;22.54;34.50;97223.69;5053235;28;20481;-59
2021/09/06 10:52:14;;;;;;;6.18;4.47;;;;;;;22.56;35.76;97226.25;5053264;28;20025;-57
2021/09/06 10:54:40;;;;;;;6.95;4.53;;;;;;;22.68;35.19;97213.81;5053141;28;20036;-60
2021/09/06 10:57:08;;;;;;;9.02;4.72;;;;;;;22.71;33.35;97208.25;5053093;28;20029;-57
2021/09/06 10:59:34;;;;;;;7.18;3.97;;;;;;;22.94;34.85;97213.63;5052874;28;20474;-60
2021/09/06 11:02:04;;;;;;;10.18;4.35;;;;;;;22.85;34.14;97205.34;5053089;28;20025;-58
2021/09/06 11:04:31;;;;;;;6.85;4.07;;;;;;;22.87;34.34;97228.41;5053023;28;20029;-58
2021/09/06 11:07:02;;;;;;;5.55;4.15;;;;;;;22.63;33.40;97222.16;5052929;28;20036;-58
2021/09/06 11:09:29;;;;;;;7.20;4.40;;;;;;;22.59;34.78;97215.38;5052960;28;20121;-59
2021/09/06 11:12:06;;;;;;;7.93;4.47;;;;;;;22.71;35.45;97226.91;5052926;28;20104;-59
2021/09/06 11:14:34;;;;;;;9.43;4.63;;;;;;;22.79;34.63;97210.31;5052576;28;20471;-57
2021/09/06 11:16:59;;;;;;;6.72;4.15;;;;;;;22.95;34.77;97208.16;5052926;28;20029;-58
2021/09/06 11:19:29;;;;;;;6.15;4.40;;;;;;;23.03;32.68;97199.53;5052834;28;20112;-59
2021/09/06 11:21:59;;;;;;;9.57;4.47;;;;;;;22.75;34.10;97209.69;5052967;28;20380;-59
2021/09/06 11:24:28;;;;;;;9.00;4.57;;;;;;;22.44;35.20;97201.38;5052870;28;20029;-59
2021/09/06 11:26:54;;;;;;;8.05;4.55;;;;;;;22.59;35.26;97205.56;5052894;28;20258;-58